sensor_id;sensor_type;location;lat;lon;timestamp;pressure;altitude;pressure_sealevel;temperature;humidity
76660;BME280;65579;45.534;6.212;2023-03-22T00:01:29;98237.77;;;8.68;45.80
76660;BME280;65579;45.534;6.212;2023-03-22T00:03:56;98235.17;;;8.14;46.62
76660;BME280;65579;45.534;6.212;2023-03-22T00:06:22;98234.59;;;8.32;45.85
76660;BME280;65579;45.534;6.212;2023-03-22T00:08:48;98237.50;;;9.13;46.13
76660;BME280;65579;45.534;6.212;2023-03-22T00:11:12;98233.37;;;8.94;45.62
76660;BME280;65579;45.534;6.212;2023-03-22T00:13:37;98232.64;;;8.49;47.13
76660;BME280;65579;45.534;6.212;2023-03-22T00:16:03;98226.45;;;8.29;47.68
76660;BME280;65579;45.534;6.212;2023-03-22T00:18:28;98224.62;;;7.94;48.73
76660;BME280;65579;45.534;6.212;2023-03-22T00:20:58;98222.40;;;8.31;47.85
76660;BME280;65579;45.534;6.212;2023-03-22T00:23:21;98225.29;;;7.47;48.81
76660;BME280;65579;45.534;6.212;2023-03-22T00:30:37;98221.20;;;8.63;45.84
76660;BME280;65579;45.534;6.212;2023-03-22T00:33:00;98218.51;;;8.66;45.97
76660;BME280;65579;45.534;6.212;2023-03-22T00:35:26;98215.37;;;9.09;45.25
76660;BME280;65579;45.534;6.212;2023-03-22T00:37:51;98214.38;;;8.74;46.23
76660;BME280;65579;45.534;6.212;2023-03-22T00:40:17;98214.53;;;8.56;46.30
76660;BME280;65579;45.534;6.212;2023-03-22T00:42:42;98216.34;;;7.80;48.33
76660;BME280;65579;45.534;6.212;2023-03-22T00:45:09;98220.26;;;8.69;47.94
76660;BME280;65579;45.534;6.212;2023-03-22T00:47:33;98221.42;;;9.01;46.24
76660;BME280;65579;45.534;6.212;2023-03-22T00:49:58;98218.61;;;8.41;47.94
76660;BME280;65579;45.534;6.212;2023-03-22T00:52:23;98224.54;;;7.37;48.90
76660;BME280;65579;45.534;6.212;2023-03-22T00:54:50;98217.34;;;7.47;50.21
76660;BME280;65579;45.534;6.212;2023-03-22T00:59:39;98205.76;;;7.43;49.48
76660;BME280;65579;45.534;6.212;2023-03-22T01:02:05;98200.57;;;7.72;49.89
76660;BME280;65579;45.534;6.212;2023-03-22T01:04:30;98199.11;;;8.40;48.64
76660;BME280;65579;45.534;6.212;2023-03-22T01:14:12;98196.26;;;7.70;49.83
76660;BME280;65579;45.534;6.212;2023-03-22T01:16:37;98190.27;;;7.82;48.23
76660;BME280;65579;45.534;6.212;2023-03-22T01:19:02;98183.24;;;8.46;48.44
76660;BME280;65579;45.534;6.212;2023-03-22T01:21:28;98186.27;;;7.59;49.01
76660;BME280;65579;45.534;6.212;2023-03-22T01:23:53;98186.17;;;7.47;49.44
76660;BME280;65579;45.534;6.212;2023-03-22T01:26:19;98183.73;;;7.71;48.19
76660;BME280;65579;45.534;6.212;2023-03-22T01:28:45;98183.33;;;7.40;48.27
76660;BME280;65579;45.534;6.212;2023-03-22T01:31:09;98180.95;;;7.63;47.85
76660;BME280;65579;45.534;6.212;2023-03-22T01:33:34;98177.56;;;7.34;48.70
76660;BME280;65579;45.534;6.212;2023-03-22T01:36:00;98174.30;;;8.30;47.03
76660;BME280;65579;45.534;6.212;2023-03-22T01:38:26;98171.46;;;7.83;47.41
76660;BME280;65579;45.534;6.212;2023-03-22T01:40:50;98171.22;;;7.28;48.74
76660;BME280;65579;45.534;6.212;2023-03-22T01:48:12;98168.03;;;7.41;48.18
76660;BME280;65579;45.534;6.212;2023-03-22T01:50:32;98166.74;;;7.11;48.04
76660;BME280;65579;45.534;6.212;2023-03-22T01:53:00;98160.98;;;7.40;47.86
76660;BME280;65579;45.534;6.212;2023-03-22T01:55:24;98165.21;;;7.44;47.53
76660;BME280;65579;45.534;6.212;2023-03-22T01:57:49;98173.55;;;7.54;48.05
76660;BME280;65579;45.534;6.212;2023-03-22T02:00:14;98176.92;;;7.02;49.47
76660;BME280;65579;45.534;6.212;2023-03-22T02:05:19;98183.82;;;7.13;48.73
76660;BME280;65579;45.534;6.212;2023-03-22T02:07:30;98186.50;;;7.01;49.22
76660;BME280;65579;45.534;6.212;2023-03-22T02:09:56;98183.92;;;7.30;48.27
76660;BME280;65579;45.534;6.212;2023-03-22T02:12:28;98177.01;;;7.94;48.13
76660;BME280;65579;45.534;6.212;2023-03-22T02:14:58;98181.37;;;6.90;50.18
76660;BME280;65579;45.534;6.212;2023-03-22T02:17:22;98176.42;;;7.02;49.86
76660;BME280;65579;45.534;6.212;2023-03-22T02:19:52;98177.97;;;6.95;49.50
76660;BME280;65579;45.534;6.212;2023-03-22T02:22:22;98172.14;;;6.62;49.93
76660;BME280;65579;45.534;6.212;2023-03-22T02:29:24;98172.42;;;6.32;49.87
76660;BME280;65579;45.534;6.212;2023-03-22T02:34:23;98165.66;;;6.13;51.04
76660;BME280;65579;45.534;6.212;2023-03-22T02:39:11;98160.74;;;6.11;52.29
76660;BME280;65579;45.534;6.212;2023-03-22T02:41:33;98163.24;;;6.24;50.78
76660;BME280;65579;45.534;6.212;2023-03-22T02:43:59;98163.49;;;7.03;50.25
76660;BME280;65579;45.534;6.212;2023-03-22T02:46:21;98162.34;;;7.07;49.16
76660;BME280;65579;45.534;6.212;2023-03-22T02:48:50;98160.82;;;6.96;48.90
76660;BME280;65579;45.534;6.212;2023-03-22T02:51:11;98162.66;;;7.11;49.20
76660;BME280;65579;45.534;6.212;2023-03-22T02:53:36;98168.11;;;6.97;50.27
76660;BME280;65579;45.534;6.212;2023-03-22T02:56:01;98175.47;;;6.03;51.42
76660;BME280;65579;45.534;6.212;2023-03-22T02:58:26;98183.04;;;6.69;48.92
76660;BME280;65579;45.534;6.212;2023-03-22T03:00:54;98186.28;;;6.09;50.63
76660;BME280;65579;45.534;6.212;2023-03-22T03:03:17;98187.24;;;6.36;50.32
76660;BME280;65579;45.534;6.212;2023-03-22T03:05:43;98185.99;;;6.93;49.39
76660;BME280;65579;45.534;6.212;2023-03-22T03:08:07;98188.78;;;5.79;50.22
76660;BME280;65579;45.534;6.212;2023-03-22T03:10:32;98185.06;;;6.95;48.55
76660;BME280;65579;45.534;6.212;2023-03-22T03:12:57;98185.65;;;6.80;48.53
76660;BME280;65579;45.534;6.212;2023-03-22T03:15:23;98186.43;;;6.51;48.86
76660;BME280;65579;45.534;6.212;2023-03-22T03:17:59;98188.81;;;6.17;49.23
76660;BME280;65579;45.534;6.212;2023-03-22T03:20:23;98187.02;;;6.42;49.15
76660;BME280;65579;45.534;6.212;2023-03-22T03:22:48;98187.34;;;6.80;48.57
76660;BME280;65579;45.534;6.212;2023-03-22T03:25:11;98190.17;;;6.31;50.31
76660;BME280;65579;45.534;6.212;2023-03-22T03:27:34;98193.84;;;6.56;50.10
76660;BME280;65579;45.534;6.212;2023-03-22T03:30:00;98190.49;;;5.61;51.94
76660;BME280;65579;45.534;6.212;2023-03-22T03:32:27;98191.40;;;6.26;51.14
76660;BME280;65579;45.534;6.212;2023-03-22T03:34:49;98187.05;;;5.54;53.23
76660;BME280;65579;45.534;6.212;2023-03-22T03:37:15;98187.75;;;5.91;50.68
76660;BME280;65579;45.534;6.212;2023-03-22T03:39:40;98183.34;;;5.65;51.98
76660;BME280;65579;45.534;6.212;2023-03-22T03:42:04;98185.38;;;6.15;50.54
76660;BME280;65579;45.534;6.212;2023-03-22T03:44:29;98187.87;;;5.98;50.65
76660;BME280;65579;45.534;6.212;2023-03-22T03:46:53;98188.41;;;6.21;50.72
76660;BME280;65579;45.534;6.212;2023-03-22T03:49:21;98186.76;;;6.15;52.10
76660;BME280;65579;45.534;6.212;2023-03-22T03:51:47;98185.34;;;6.48;50.44
76660;BME280;65579;45.534;6.212;2023-03-22T03:54:10;98180.85;;;7.14;49.31
76660;BME280;65579;45.534;6.212;2023-03-22T03:56:35;98180.20;;;6.40;48.99
76660;BME280;65579;45.534;6.212;2023-03-22T03:59:00;98181.99;;;5.67;50.48
76660;BME280;65579;45.534;6.212;2023-03-22T04:01:26;98183.99;;;5.81;50.97
76660;BME280;65579;45.534;6.212;2023-03-22T04:03:52;98181.19;;;5.67;48.99
76660;BME280;65579;45.534;6.212;2023-03-22T04:06:17;98180.78;;;5.68;49.86
76660;BME280;65579;45.534;6.212;2023-03-22T04:08:43;98188.24;;;5.03;50.80
76660;BME280;65579;45.534;6.212;2023-03-22T04:11:08;98187.73;;;6.10;49.84
76660;BME280;65579;45.534;6.212;2023-03-22T04:13:34;98190.82;;;5.33;50.51
76660;BME280;65579;45.534;6.212;2023-03-22T04:15:59;98188.80;;;5.97;49.86
76660;BME280;65579;45.534;6.212;2023-03-22T04:18:25;98189.81;;;5.72;50.16
76660;BME280;65579;45.534;6.212;2023-03-22T04:20:50;98192.39;;;5.97;49.21
76660;BME280;65579;45.534;6.212;2023-03-22T04:23:15;98190.98;;;6.12;48.59
76660;BME280;65579;45.534;6.212;2023-03-22T04:25:41;98182.66;;;5.73;51.73
76660;BME280;65579;45.534;6.212;2023-03-22T04:28:06;98179.07;;;5.79;50.98
76660;BME280;65579;45.534;6.212;2023-03-22T04:30:33;98181.68;;;5.58;51.27
76660;BME280;65579;45.534;6.212;2023-03-22T04:32:57;98193.32;;;5.69;49.89
76660;BME280;65579;45.534;6.212;2023-03-22T04:35:22;98197.27;;;5.35;51.83
76660;BME280;65579;45.534;6.212;2023-03-22T04:37:48;98199.75;;;5.62;50.12
76660;BME280;65579;45.534;6.212;2023-03-22T04:40:14;98193.98;;;5.35;50.57
76660;BME280;65579;45.534;6.212;2023-03-22T04:42:39;98191.81;;;5.07;52.10
76660;BME280;65579;45.534;6.212;2023-03-22T04:45:05;98188.71;;;5.88;50.40
76660;BME280;65579;45.534;6.212;2023-03-22T04:47:29;98190.14;;;5.79;49.82
76660;BME280;65579;45.534;6.212;2023-03-22T04:49:54;98194.42;;;5.29;50.28
76660;BME280;65579;45.534;6.212;2023-03-22T04:52:20;98195.07;;;5.55;50.55
76660;BME280;65579;45.534;6.212;2023-03-22T04:54:45;98194.25;;;5.13;50.40
76660;BME280;65579;45.534;6.212;2023-03-22T04:57:14;98196.73;;;4.92;52.07
76660;BME280;65579;45.534;6.212;2023-03-22T04:59:37;98193.30;;;5.08;51.67
76660;BME280;65579;45.534;6.212;2023-03-22T05:02:02;98194.96;;;5.11;51.99
76660;BME280;65579;45.534;6.212;2023-03-22T05:04:27;98189.21;;;5.47;50.62
76660;BME280;65579;45.534;6.212;2023-03-22T05:06:53;98191.87;;;5.69;51.53
76660;BME280;65579;45.534;6.212;2023-03-22T05:09:18;98191.00;;;6.06;50.86
76660;BME280;65579;45.534;6.212;2023-03-22T05:11:43;98190.94;;;6.08;48.95
76660;BME280;65579;45.534;6.212;2023-03-22T05:14:09;98187.10;;;5.67;50.97
76660;BME280;65579;45.534;6.212;2023-03-22T05:16:34;98186.75;;;5.93;50.58
76660;BME280;65579;45.534;6.212;2023-03-22T05:19:00;98190.58;;;6.91;50.25
76660;BME280;65579;45.534;6.212;2023-03-22T05:21:25;98191.08;;;6.26;49.30
76660;BME280;65579;45.534;6.212;2023-03-22T05:23:52;98189.36;;;5.77;50.10
76660;BME280;65579;45.534;6.212;2023-03-22T05:26:16;98192.72;;;5.00;51.24
76660;BME280;65579;45.534;6.212;2023-03-22T05:28:42;98189.96;;;5.81;50.06
76660;BME280;65579;45.534;6.212;2023-03-22T05:31:07;98191.64;;;5.66;49.64
76660;BME280;65579;45.534;6.212;2023-03-22T05:33:32;98197.59;;;4.72;50.37
76660;BME280;65579;45.534;6.212;2023-03-22T05:35:58;98198.16;;;4.97;49.76
76660;BME280;65579;45.534;6.212;2023-03-22T05:38:24;98198.42;;;4.83;51.34
76660;BME280;65579;45.534;6.212;2023-03-22T05:40:49;98195.96;;;5.20;50.58
76660;BME280;65579;45.534;6.212;2023-03-22T05:43:15;98190.43;;;5.48;51.23
76660;BME280;65579;45.534;6.212;2023-03-22T05:45:40;98191.81;;;5.62;49.82
76660;BME280;65579;45.534;6.212;2023-03-22T05:48:06;98193.51;;;5.14;50.45
76660;BME280;65579;45.534;6.212;2023-03-22T05:50:31;98191.29;;;5.86;51.01
76660;BME280;65579;45.534;6.212;2023-03-22T05:52:56;98193.78;;;5.03;51.64
76660;BME280;65579;45.534;6.212;2023-03-22T05:55:22;98189.06;;;5.55;50.14
76660;BME280;65579;45.534;6.212;2023-03-22T05:57:47;98192.00;;;5.41;51.28
76660;BME280;65579;45.534;6.212;2023-03-22T06:00:14;98202.59;;;4.85;50.21
76660;BME280;65579;45.534;6.212;2023-03-22T06:02:38;98201.72;;;4.67;51.80
76660;BME280;65579;45.534;6.212;2023-03-22T06:05:04;98202.35;;;5.33;50.16
76660;BME280;65579;45.534;6.212;2023-03-22T06:07:29;98204.89;;;5.23;51.45
76660;BME280;65579;45.534;6.212;2023-03-22T06:09:54;98199.09;;;5.96;50.50
76660;BME280;65579;45.534;6.212;2023-03-22T06:12:20;98198.05;;;5.98;50.07
76660;BME280;65579;45.534;6.212;2023-03-22T06:14:45;98195.04;;;5.99;49.45
76660;BME280;65579;45.534;6.212;2023-03-22T06:17:11;98198.18;;;5.65;49.78
76660;BME280;65579;45.534;6.212;2023-03-22T06:19:36;98197.89;;;5.44;50.74
76660;BME280;65579;45.534;6.212;2023-03-22T06:22:01;98200.68;;;5.39;48.88
76660;BME280;65579;45.534;6.212;2023-03-22T06:24:27;98203.33;;;5.26;49.19
76660;BME280;65579;45.534;6.212;2023-03-22T06:26:53;98210.47;;;5.28;49.88
76660;BME280;65579;45.534;6.212;2023-03-22T06:29:18;98215.32;;;4.94;50.12
76660;BME280;65579;45.534;6.212;2023-03-22T06:31:44;98217.16;;;5.27;49.73
76660;BME280;65579;45.534;6.212;2023-03-22T06:34:09;98219.38;;;4.94;49.70
76660;BME280;65579;45.534;6.212;2023-03-22T06:36:34;98223.09;;;4.40;50.90
76660;BME280;65579;45.534;6.212;2023-03-22T06:39:00;98221.23;;;5.26;50.35
76660;BME280;65579;45.534;6.212;2023-03-22T06:41:25;98216.43;;;5.68;50.01
76660;BME280;65579;45.534;6.212;2023-03-22T06:43:51;98216.21;;;5.91;49.21
76660;BME280;65579;45.534;6.212;2023-03-22T06:46:16;98220.63;;;5.14;49.26
76660;BME280;65579;45.534;6.212;2023-03-22T06:48:41;98218.74;;;5.48;49.06
76660;BME280;65579;45.534;6.212;2023-03-22T06:51:07;98215.68;;;5.53;50.03
76660;BME280;65579;45.534;6.212;2023-03-22T06:53:33;98219.13;;;6.36;49.36
76660;BME280;65579;45.534;6.212;2023-03-22T06:55:57;98219.14;;;6.20;49.50
76660;BME280;65579;45.534;6.212;2023-03-22T06:58:23;98223.68;;;4.47;52.12
76660;BME280;65579;45.534;6.212;2023-03-22T07:00:48;98219.20;;;5.72;49.64
76660;BME280;65579;45.534;6.212;2023-03-22T07:03:14;98222.49;;;5.97;49.87
76660;BME280;65579;45.534;6.212;2023-03-22T07:05:39;98219.03;;;5.62;49.52
76660;BME280;65579;45.534;6.212;2023-03-22T07:08:05;98217.00;;;5.62;49.68
76660;BME280;65579;45.534;6.212;2023-03-22T07:10:30;98211.93;;;6.16;49.24
76660;BME280;65579;45.534;6.212;2023-03-22T07:12:55;98210.64;;;6.46;49.18
76660;BME280;65579;45.534;6.212;2023-03-22T07:15:21;98214.22;;;6.04;49.57
76660;BME280;65579;45.534;6.212;2023-03-22T07:17:46;98211.55;;;6.42;49.37
76660;BME280;65579;45.534;6.212;2023-03-22T07:20:12;98208.15;;;5.51;51.01
76660;BME280;65579;45.534;6.212;2023-03-22T07:22:37;98202.72;;;6.11;49.71
76660;BME280;65579;45.534;6.212;2023-03-22T07:25:04;98201.21;;;5.43;50.35
76660;BME280;65579;45.534;6.212;2023-03-22T07:27:28;98199.06;;;5.94;49.81
76660;BME280;65579;45.534;6.212;2023-03-22T07:29:54;98196.36;;;5.05;49.14
76660;BME280;65579;45.534;6.212;2023-03-22T07:32:19;98200.69;;;6.71;48.60
76660;BME280;65579;45.534;6.212;2023-03-22T07:34:45;98201.80;;;5.99;50.06
76660;BME280;65579;45.534;6.212;2023-03-22T07:37:10;98199.07;;;6.36;49.45
76660;BME280;65579;45.534;6.212;2023-03-22T07:39:35;98199.02;;;7.29;48.00
76660;BME280;65579;45.534;6.212;2023-03-22T07:42:01;98203.51;;;7.02;49.18
76660;BME280;65579;45.534;6.212;2023-03-22T07:44:26;98210.09;;;5.71;53.80
76660;BME280;65579;45.534;6.212;2023-03-22T07:46:51;98213.95;;;5.47;54.14
76660;BME280;65579;45.534;6.212;2023-03-22T07:49:17;98208.81;;;5.86;52.63
76660;BME280;65579;45.534;6.212;2023-03-22T07:51:42;98205.70;;;6.23;51.37
76660;BME280;65579;45.534;6.212;2023-03-22T07:54:08;98203.58;;;7.12;49.99
76660;BME280;65579;45.534;6.212;2023-03-22T07:56:34;98204.70;;;7.26;49.76
76660;BME280;65579;45.534;6.212;2023-03-22T07:58:59;98198.03;;;8.13;48.69
76660;BME280;65579;45.534;6.212;2023-03-22T08:01:24;98199.71;;;8.40;47.31
76660;BME280;65579;45.534;6.212;2023-03-22T08:03:50;98201.56;;;8.07;47.72
76660;BME280;65579;45.534;6.212;2023-03-22T08:06:16;98207.28;;;8.22;47.62
76660;BME280;65579;45.534;6.212;2023-03-22T08:08:41;98212.92;;;7.59;48.75
76660;BME280;65579;45.534;6.212;2023-03-22T08:11:07;98212.21;;;8.13;47.91
76660;BME280;65579;45.534;6.212;2023-03-22T08:13:32;98214.55;;;7.42;50.39
76660;BME280;65579;45.534;6.212;2023-03-22T08:15:57;98211.24;;;7.86;49.35
76660;BME280;65579;45.534;6.212;2023-03-22T08:18:22;98209.61;;;7.50;50.58
76660;BME280;65579;45.534;6.212;2023-03-22T08:20:52;98205.60;;;8.35;48.03
76660;BME280;65579;45.534;6.212;2023-03-22T08:23:13;98205.53;;;8.20;47.06
76660;BME280;65579;45.534;6.212;2023-03-22T08:25:38;98207.11;;;8.76;47.02
76660;BME280;65579;45.534;6.212;2023-03-22T08:28:04;98210.65;;;8.98;46.98
76660;BME280;65579;45.534;6.212;2023-03-22T08:30:29;98212.91;;;8.81;47.75
76660;BME280;65579;45.534;6.212;2023-03-22T08:32:55;98216.79;;;9.28;46.18
76660;BME280;65579;45.534;6.212;2023-03-22T08:35:20;98219.34;;;9.15;44.60
76660;BME280;65579;45.534;6.212;2023-03-22T08:37:45;98221.32;;;9.13;44.69
76660;BME280;65579;45.534;6.212;2023-03-22T08:40:11;98221.17;;;9.47;44.21
76660;BME280;65579;45.534;6.212;2023-03-22T08:42:36;98219.35;;;10.16;43.60
76660;BME280;65579;45.534;6.212;2023-03-22T08:45:01;98213.86;;;10.08;44.40
76660;BME280;65579;45.534;6.212;2023-03-22T08:47:26;98207.98;;;10.13;43.83
76660;BME280;65579;45.534;6.212;2023-03-22T08:49:52;98197.67;;;10.07;43.18
76660;BME280;65579;45.534;6.212;2023-03-22T08:52:17;98196.36;;;10.01;43.34
76660;BME280;65579;45.534;6.212;2023-03-22T08:54:43;98200.69;;;10.12;44.90
76660;BME280;65579;45.534;6.212;2023-03-22T08:57:09;98198.46;;;10.53;45.03
76660;BME280;65579;45.534;6.212;2023-03-22T08:59:34;98194.87;;;10.31;42.01
76660;BME280;65579;45.534;6.212;2023-03-22T09:01:59;98191.32;;;10.82;43.06
76660;BME280;65579;45.534;6.212;2023-03-22T09:04:24;98187.95;;;10.25;43.03
76660;BME280;65579;45.534;6.212;2023-03-22T09:06:49;98185.51;;;10.19;42.79
76660;BME280;65579;45.534;6.212;2023-03-22T09:09:15;98185.92;;;10.44;43.02
76660;BME280;65579;45.534;6.212;2023-03-22T09:11:40;98188.47;;;9.92;43.49
76660;BME280;65579;45.534;6.212;2023-03-22T09:14:05;98184.27;;;10.21;42.44
76660;BME280;65579;45.534;6.212;2023-03-22T09:16:31;98186.55;;;10.33;41.91
76660;BME280;65579;45.534;6.212;2023-03-22T09:18:56;98185.48;;;11.53;39.55
76660;BME280;65579;45.534;6.212;2023-03-22T09:21:22;98179.54;;;10.71;40.48
76660;BME280;65579;45.534;6.212;2023-03-22T09:23:47;98173.13;;;10.81;41.21
76660;BME280;65579;45.534;6.212;2023-03-22T09:26:12;98167.80;;;10.64;42.40
76660;BME280;65579;45.534;6.212;2023-03-22T09:28:38;98170.25;;;10.98;40.94
76660;BME280;65579;45.534;6.212;2023-03-22T09:31:05;98172.41;;;10.63;43.32
76660;BME280;65579;45.534;6.212;2023-03-22T09:33:28;98170.30;;;10.33;43.62
76660;BME280;65579;45.534;6.212;2023-03-22T09:35:54;98164.71;;;11.39;40.48
76660;BME280;65579;45.534;6.212;2023-03-22T09:38:19;98162.23;;;11.83;40.38
76660;BME280;65579;45.534;6.212;2023-03-22T09:40:51;98157.72;;;11.68;38.77
76660;BME280;65579;45.534;6.212;2023-03-22T09:43:12;98155.32;;;11.52;38.14
76660;BME280;65579;45.534;6.212;2023-03-22T09:45:38;98152.39;;;12.12;39.21
76660;BME280;65579;45.534;6.212;2023-03-22T09:48:00;98154.45;;;12.82;38.00
76660;BME280;65579;45.534;6.212;2023-03-22T09:50:28;98153.87;;;12.22;40.10
76660;BME280;65579;45.534;6.212;2023-03-22T09:52:52;98147.75;;;12.10;39.69
76660;BME280;65579;45.534;6.212;2023-03-22T09:55:19;98142.40;;;12.10;37.17
76660;BME280;65579;45.534;6.212;2023-03-22T09:57:41;98135.10;;;12.54;37.88
76660;BME280;65579;45.534;6.212;2023-03-22T10:00:14;98129.80;;;12.67;37.04
76660;BME280;65579;45.534;6.212;2023-03-22T10:02:38;98128.41;;;12.93;36.00
76660;BME280;65579;45.534;6.212;2023-03-22T10:05:02;98123.38;;;12.51;36.16
76660;BME280;65579;45.534;6.212;2023-03-22T10:07:26;98125.76;;;13.09;37.83
76660;BME280;65579;45.534;6.212;2023-03-22T10:09:56;98123.69;;;13.16;37.39
76660;BME280;65579;45.534;6.212;2023-03-22T10:12:17;98124.10;;;12.90;35.16
76660;BME280;65579;45.534;6.212;2023-03-22T10:14:40;98122.15;;;12.84;34.54
76660;BME280;65579;45.534;6.212;2023-03-22T10:17:07;98119.37;;;13.23;33.73
76660;BME280;65579;45.534;6.212;2023-03-22T10:19:32;98115.86;;;13.71;34.68
76660;BME280;65579;45.534;6.212;2023-03-22T10:21:56;98112.98;;;13.88;33.61
76660;BME280;65579;45.534;6.212;2023-03-22T10:24:22;98110.32;;;13.61;35.35
76660;BME280;65579;45.534;6.212;2023-03-22T10:26:46;98111.14;;;13.10;35.60
76660;BME280;65579;45.534;6.212;2023-03-22T10:29:12;98107.00;;;13.64;33.76
76660;BME280;65579;45.534;6.212;2023-03-22T10:31:37;98103.53;;;13.67;34.00
76660;BME280;65579;45.534;6.212;2023-03-22T10:34:04;98101.25;;;13.96;34.66
76660;BME280;65579;45.534;6.212;2023-03-22T10:36:27;98092.75;;;13.88;33.96
76660;BME280;65579;45.534;6.212;2023-03-22T10:38:55;98088.29;;;13.93;34.41
76660;BME280;65579;45.534;6.212;2023-03-22T10:41:18;98085.97;;;14.15;33.16
76660;BME280;65579;45.534;6.212;2023-03-22T10:43:42;98086.68;;;14.04;33.69
76660;BME280;65579;45.534;6.212;2023-03-22T10:46:12;98084.00;;;14.42;32.73
76660;BME280;65579;45.534;6.212;2023-03-22T10:48:33;98081.46;;;14.35;31.97
76660;BME280;65579;45.534;6.212;2023-03-22T10:50:58;98084.74;;;14.73;30.24
76660;BME280;65579;45.534;6.212;2023-03-22T10:53:28;98086.76;;;13.96;31.61
76660;BME280;65579;45.534;6.212;2023-03-22T10:55:47;98082.80;;;13.01;32.59
76660;BME280;65579;45.534;6.212;2023-03-22T10:58:14;98077.38;;;12.94;32.91
76660;BME280;65579;45.534;6.212;2023-03-22T11:00:37;98075.75;;;13.16;32.56
76660;BME280;65579;45.534;6.212;2023-03-22T11:03:05;98071.12;;;13.39;31.93
76660;BME280;65579;45.534;6.212;2023-03-22T11:05:29;98065.98;;;14.27;32.32
76660;BME280;65579;45.534;6.212;2023-03-22T11:07:53;98061.24;;;13.93;30.21
76660;BME280;65579;45.534;6.212;2023-03-22T11:10:22;98055.34;;;14.20;29.87
76660;BME280;65579;45.534;6.212;2023-03-22T11:12:49;98050.76;;;13.98;31.71
76660;BME280;65579;45.534;6.212;2023-03-22T11:15:18;98048.01;;;14.13;32.94
76660;BME280;65579;45.534;6.212;2023-03-22T11:17:36;98046.47;;;14.01;30.93
76660;BME280;65579;45.534;6.212;2023-03-22T11:20:02;98040.66;;;14.48;32.44
76660;BME280;65579;45.534;6.212;2023-03-22T11:22:29;98032.84;;;14.76;32.01
76660;BME280;65579;45.534;6.212;2023-03-22T11:24:51;98024.34;;;15.51;31.15
76660;BME280;65579;45.534;6.212;2023-03-22T11:27:19;98021.15;;;15.66;30.71
76660;BME280;65579;45.534;6.212;2023-03-22T11:29:44;98015.76;;;15.80;30.15
76660;BME280;65579;45.534;6.212;2023-03-22T11:34:33;98012.16;;;16.72;30.81
76660;BME280;65579;45.534;6.212;2023-03-22T11:36:59;98012.26;;;16.70;29.10
76660;BME280;65579;45.534;6.212;2023-03-22T11:39:26;98006.63;;;16.37;28.42
76660;BME280;65579;45.534;6.212;2023-03-22T11:41:50;98009.39;;;16.27;28.19
76660;BME280;65579;45.534;6.212;2023-03-22T11:44:18;98010.02;;;15.92;31.46
76660;BME280;65579;45.534;6.212;2023-03-22T11:46:48;98009.10;;;16.31;29.21
76660;BME280;65579;45.534;6.212;2023-03-22T11:49:08;98008.68;;;15.96;31.12
76660;BME280;65579;45.534;6.212;2023-03-22T11:51:34;98006.08;;;16.53;29.45
76660;BME280;65579;45.534;6.212;2023-03-22T11:54:03;98003.09;;;16.67;30.47
76660;BME280;65579;45.534;6.212;2023-03-22T11:56:28;97998.33;;;16.94;29.28
76660;BME280;65579;45.534;6.212;2023-03-22T11:58:55;97993.79;;;16.59;28.55
76660;BME280;65579;45.534;6.212;2023-03-22T12:01:17;97991.74;;;17.30;29.24
76660;BME280;65579;45.534;6.212;2023-03-22T12:03:41;97988.76;;;16.87;29.57
76660;BME280;65579;45.534;6.212;2023-03-22T12:06:06;97984.30;;;16.58;29.54
76660;BME280;65579;45.534;6.212;2023-03-22T12:08:36;97977.69;;;17.07;28.66
76660;BME280;65579;45.534;6.212;2023-03-22T12:10:59;97975.59;;;17.60;28.58
76660;BME280;65579;45.534;6.212;2023-03-22T12:13:22;97971.96;;;17.25;28.71
76660;BME280;65579;45.534;6.212;2023-03-22T12:15:47;97968.24;;;16.65;30.77
76660;BME280;65579;45.534;6.212;2023-03-22T12:18:13;97959.16;;;17.16;29.15
76660;BME280;65579;45.534;6.212;2023-03-22T12:20:40;97955.07;;;17.04;28.71
76660;BME280;65579;45.534;6.212;2023-03-22T12:23:01;97952.60;;;17.14;29.40
76660;BME280;65579;45.534;6.212;2023-03-22T12:25:29;97949.15;;;17.33;29.15
76660;BME280;65579;45.534;6.212;2023-03-22T12:27:53;97948.13;;;17.40;28.22
76660;BME280;65579;45.534;6.212;2023-03-22T12:30:19;97941.46;;;17.35;27.82
76660;BME280;65579;45.534;6.212;2023-03-22T12:32:45;97945.97;;;16.79;29.82
76660;BME280;65579;45.534;6.212;2023-03-22T12:35:10;97941.24;;;16.93;32.75
76660;BME280;65579;45.534;6.212;2023-03-22T12:37:34;97934.17;;;16.95;31.01
76660;BME280;65579;45.534;6.212;2023-03-22T12:40:00;97925.54;;;17.43;28.84
76660;BME280;65579;45.534;6.212;2023-03-22T12:42:25;97921.08;;;17.30;28.32
76660;BME280;65579;45.534;6.212;2023-03-22T12:44:48;97916.02;;;17.41;26.69
76660;BME280;65579;45.534;6.212;2023-03-22T12:47:17;97912.85;;;17.65;26.42
76660;BME280;65579;45.534;6.212;2023-03-22T12:49:41;97907.93;;;17.42;27.40
76660;BME280;65579;45.534;6.212;2023-03-22T12:52:11;97901.98;;;17.48;27.97
76660;BME280;65579;45.534;6.212;2023-03-22T12:54:28;97898.82;;;17.54;30.07
76660;BME280;65579;45.534;6.212;2023-03-22T12:56:54;97892.31;;;17.28;29.96
76660;BME280;65579;45.534;6.212;2023-03-22T12:59:21;97887.42;;;17.33;27.65
76660;BME280;65579;45.534;6.212;2023-03-22T13:01:47;97887.01;;;17.78;27.72
76660;BME280;65579;45.534;6.212;2023-03-22T13:11:29;97868.60;;;18.21;26.14
76660;BME280;65579;45.534;6.212;2023-03-22T13:13:49;97864.70;;;18.16;25.00
76660;BME280;65579;45.534;6.212;2023-03-22T13:16:18;97863.08;;;17.84;25.84
76660;BME280;65579;45.534;6.212;2023-03-22T13:21:12;97858.61;;;17.78;24.32
76660;BME280;65579;45.534;6.212;2023-03-22T13:23:31;97856.82;;;18.22;24.62
76660;BME280;65579;45.534;6.212;2023-03-22T13:26:01;97855.78;;;18.52;25.43
76660;BME280;65579;45.534;6.212;2023-03-22T13:28:22;97853.07;;;18.60;25.44
76660;BME280;65579;45.534;6.212;2023-03-22T13:30:48;97847.65;;;18.35;26.70
76660;BME280;65579;45.534;6.212;2023-03-22T13:33:18;97843.69;;;18.72;25.02
76660;BME280;65579;45.534;6.212;2023-03-22T13:35:42;97843.55;;;18.25;27.04
76660;BME280;65579;45.534;6.212;2023-03-22T13:38:02;97835.87;;;18.28;24.41
76660;BME280;65579;45.534;6.212;2023-03-22T13:40:30;97833.69;;;17.86;25.15